sensor_id;sensor_type;location;lat;lon;timestamp;temperature;humidity
81524;DHT22;70954;49.500;10.416;2023-07-02T00:00:09;19.70;60.30
81524;DHT22;70954;49.500;10.416;2023-07-02T00:02:35;19.60;60.50
81524;DHT22;70954;49.500;10.416;2023-07-02T00:05:01;19.60;60.70
81524;DHT22;70954;49.500;10.416;2023-07-02T00:07:26;19.60;60.70
81524;DHT22;70954;49.500;10.416;2023-07-02T00:09:52;19.60;60.90
81524;DHT22;70954;49.500;10.416;2023-07-02T00:12:17;19.60;60.90
81524;DHT22;70954;49.500;10.416;2023-07-02T00:14:43;19.60;61.00
81524;DHT22;70954;49.500;10.416;2023-07-02T00:17:08;19.60;61.00
81524;DHT22;70954;49.500;10.416;2023-07-02T00:19:34;19.60;61.10
81524;DHT22;70954;49.500;10.416;2023-07-02T00:21:59;19.60;61.10
81524;DHT22;70954;49.500;10.416;2023-07-02T00:24:25;19.70;61.20
81524;DHT22;70954;49.500;10.416;2023-07-02T00:26:50;19.70;61.10
81524;DHT22;70954;49.500;10.416;2023-07-02T00:29:16;19.70;61.10
81524;DHT22;70954;49.500;10.416;2023-07-02T00:31:41;19.70;61.20
81524;DHT22;70954;49.500;10.416;2023-07-02T00:34:06;19.70;61.30
81524;DHT22;70954;49.500;10.416;2023-07-02T00:36:32;19.70;61.30
81524;DHT22;70954;49.500;10.416;2023-07-02T00:38:58;19.70;61.40
81524;DHT22;70954;49.500;10.416;2023-07-02T00:41:24;19.70;61.50
81524;DHT22;70954;49.500;10.416;2023-07-02T00:43:50;19.70;61.70
81524;DHT22;70954;49.500;10.416;2023-07-02T00:46:19;19.70;61.50
81524;DHT22;70954;49.500;10.416;2023-07-02T00:48:46;19.70;62.00
81524;DHT22;70954;49.500;10.416;2023-07-02T00:51:19;19.70;61.70
81524;DHT22;70954;49.500;10.416;2023-07-02T00:53:47;19.70;62.00
81524;DHT22;70954;49.500;10.416;2023-07-02T00:56:13;19.70;62.00
81524;DHT22;70954;49.500;10.416;2023-07-02T00:58:41;19.70;62.00
81524;DHT22;70954;49.500;10.416;2023-07-02T01:01:06;19.70;62.30
81524;DHT22;70954;49.500;10.416;2023-07-02T01:03:32;19.70;62.50
81524;DHT22;70954;49.500;10.416;2023-07-02T01:05:57;19.70;62.20
81524;DHT22;70954;49.500;10.416;2023-07-02T01:08:23;19.70;62.30
81524;DHT22;70954;49.500;10.416;2023-07-02T01:10:48;19.70;62.50
81524;DHT22;70954;49.500;10.416;2023-07-02T01:13:16;19.70;62.50
81524;DHT22;70954;49.500;10.416;2023-07-02T01:15:45;19.70;62.60
81524;DHT22;70954;49.500;10.416;2023-07-02T01:18:12;19.70;62.50
81524;DHT22;70954;49.500;10.416;2023-07-02T01:20:39;19.70;62.20
81524;DHT22;70954;49.500;10.416;2023-07-02T01:23:05;19.70;62.20
81524;DHT22;70954;49.500;10.416;2023-07-02T01:25:30;19.60;61.90
81524;DHT22;70954;49.500;10.416;2023-07-02T01:27:56;19.60;61.80
81524;DHT22;70954;49.500;10.416;2023-07-02T01:30:21;19.60;61.50
81524;DHT22;70954;49.500;10.416;2023-07-02T01:32:47;19.60;61.40
81524;DHT22;70954;49.500;10.416;2023-07-02T01:35:12;19.60;61.40
81524;DHT22;70954;49.500;10.416;2023-07-02T01:37:38;19.50;61.10
81524;DHT22;70954;49.500;10.416;2023-07-02T01:40:04;19.50;60.90
81524;DHT22;70954;49.500;10.416;2023-07-02T01:42:29;19.50;60.80
81524;DHT22;70954;49.500;10.416;2023-07-02T01:44:55;19.40;60.70
81524;DHT22;70954;49.500;10.416;2023-07-02T01:47:20;19.40;60.50
81524;DHT22;70954;49.500;10.416;2023-07-02T01:49:45;19.40;60.50
81524;DHT22;70954;49.500;10.416;2023-07-02T01:52:11;19.30;60.40
81524;DHT22;70954;49.500;10.416;2023-07-02T01:54:36;19.30;60.40
81524;DHT22;70954;49.500;10.416;2023-07-02T01:57:02;19.30;60.40
81524;DHT22;70954;49.500;10.416;2023-07-02T01:59:28;19.20;60.40
81524;DHT22;70954;49.500;10.416;2023-07-02T02:01:53;19.20;60.40
81524;DHT22;70954;49.500;10.416;2023-07-02T02:04:19;19.10;60.50
81524;DHT22;70954;49.500;10.416;2023-07-02T02:06:44;19.00;60.40
81524;DHT22;70954;49.500;10.416;2023-07-02T02:09:10;19.00;60.40
81524;DHT22;70954;49.500;10.416;2023-07-02T02:11:41;18.90;60.70
81524;DHT22;70954;49.500;10.416;2023-07-02T02:14:07;18.90;60.80
81524;DHT22;70954;49.500;10.416;2023-07-02T02:16:32;18.90;60.80
81524;DHT22;70954;49.500;10.416;2023-07-02T02:18:58;18.80;60.80
81524;DHT22;70954;49.500;10.416;2023-07-02T02:21:23;18.70;61.10
81524;DHT22;70954;49.500;10.416;2023-07-02T02:23:49;18.70;61.20
81524;DHT22;70954;49.500;10.416;2023-07-02T02:26:15;18.70;61.30
81524;DHT22;70954;49.500;10.416;2023-07-02T02:28:41;18.60;61.30
81524;DHT22;70954;49.500;10.416;2023-07-02T02:31:06;18.60;61.30
81524;DHT22;70954;49.500;10.416;2023-07-02T02:33:32;18.50;61.30
81524;DHT22;70954;49.500;10.416;2023-07-02T02:35:58;18.50;61.20
81524;DHT22;70954;49.500;10.416;2023-07-02T02:38:23;18.50;61.40
81524;DHT22;70954;49.500;10.416;2023-07-02T02:40:49;18.50;61.50
81524;DHT22;70954;49.500;10.416;2023-07-02T02:43:14;18.50;61.50
81524;DHT22;70954;49.500;10.416;2023-07-02T02:45:40;18.40;61.60
81524;DHT22;70954;49.500;10.416;2023-07-02T02:48:05;18.40;61.40
81524;DHT22;70954;49.500;10.416;2023-07-02T02:50:31;18.40;61.50
81524;DHT22;70954;49.500;10.416;2023-07-02T02:52:57;18.40;61.70
81524;DHT22;70954;49.500;10.416;2023-07-02T02:55:22;18.40;61.70
81524;DHT22;70954;49.500;10.416;2023-07-02T02:57:48;18.40;61.80
81524;DHT22;70954;49.500;10.416;2023-07-02T03:00:13;18.30;61.80
81524;DHT22;70954;49.500;10.416;2023-07-02T03:02:39;18.30;61.90
81524;DHT22;70954;49.500;10.416;2023-07-02T03:05:05;18.30;61.90
81524;DHT22;70954;49.500;10.416;2023-07-02T03:07:31;18.30;61.80
81524;DHT22;70954;49.500;10.416;2023-07-02T03:09:57;18.30;61.70
81524;DHT22;70954;49.500;10.416;2023-07-02T03:12:23;18.30;62.00
81524;DHT22;70954;49.500;10.416;2023-07-02T03:14:49;18.30;61.80
81524;DHT22;70954;49.500;10.416;2023-07-02T03:17:14;18.30;61.90
81524;DHT22;70954;49.500;10.416;2023-07-02T03:19:39;18.30;61.90
81524;DHT22;70954;49.500;10.416;2023-07-02T03:22:05;18.30;61.70
81524;DHT22;70954;49.500;10.416;2023-07-02T03:24:30;18.30;61.60
81524;DHT22;70954;49.500;10.416;2023-07-02T03:26:56;18.30;61.60
81524;DHT22;70954;49.500;10.416;2023-07-02T03:29:21;18.30;61.60
81524;DHT22;70954;49.500;10.416;2023-07-02T03:31:47;18.30;61.60
81524;DHT22;70954;49.500;10.416;2023-07-02T03:34:12;18.30;61.50
81524;DHT22;70954;49.500;10.416;2023-07-02T03:36:38;18.30;61.40
81524;DHT22;70954;49.500;10.416;2023-07-02T03:39:04;18.30;61.40
81524;DHT22;70954;49.500;10.416;2023-07-02T03:41:30;18.30;61.20
81524;DHT22;70954;49.500;10.416;2023-07-02T03:43:55;18.30;61.20
81524;DHT22;70954;49.500;10.416;2023-07-02T03:46:21;18.30;61.10
81524;DHT22;70954;49.500;10.416;2023-07-02T03:48:46;18.30;61.00
81524;DHT22;70954;49.500;10.416;2023-07-02T03:51:11;18.30;60.90
81524;DHT22;70954;49.500;10.416;2023-07-02T03:53:37;18.40;60.80
81524;DHT22;70954;49.500;10.416;2023-07-02T03:56:02;18.40;60.80
81524;DHT22;70954;49.500;10.416;2023-07-02T03:58:28;18.40;60.70
81524;DHT22;70954;49.500;10.416;2023-07-02T04:00:53;18.40;60.60
81524;DHT22;70954;49.500;10.416;2023-07-02T04:03:19;18.50;60.60
81524;DHT22;70954;49.500;10.416;2023-07-02T04:05:44;18.50;60.50
81524;DHT22;70954;49.500;10.416;2023-07-02T04:08:10;18.50;60.50
81524;DHT22;70954;49.500;10.416;2023-07-02T04:10:35;18.50;60.50
81524;DHT22;70954;49.500;10.416;2023-07-02T04:13:01;18.50;60.50
81524;DHT22;70954;49.500;10.416;2023-07-02T04:15:27;18.60;60.50
81524;DHT22;70954;49.500;10.416;2023-07-02T04:17:52;18.60;60.50
81524;DHT22;70954;49.500;10.416;2023-07-02T04:20:19;18.60;60.60
81524;DHT22;70954;49.500;10.416;2023-07-02T04:22:47;18.60;60.60
81524;DHT22;70954;49.500;10.416;2023-07-02T04:25:14;18.70;60.70
81524;DHT22;70954;49.500;10.416;2023-07-02T04:27:39;18.70;60.70
81524;DHT22;70954;49.500;10.416;2023-07-02T04:30:05;18.70;60.50
81524;DHT22;70954;49.500;10.416;2023-07-02T04:32:31;18.70;60.70
81524;DHT22;70954;49.500;10.416;2023-07-02T04:34:56;18.70;60.90
81524;DHT22;70954;49.500;10.416;2023-07-02T04:37:22;18.70;60.90
81524;DHT22;70954;49.500;10.416;2023-07-02T04:39:47;18.80;61.00
81524;DHT22;70954;49.500;10.416;2023-07-02T04:42:13;18.80;61.10
81524;DHT22;70954;49.500;10.416;2023-07-02T04:44:38;18.80;61.10
81524;DHT22;70954;49.500;10.416;2023-07-02T04:47:04;18.90;61.10
81524;DHT22;70954;49.500;10.416;2023-07-02T04:49:29;18.90;61.00
81524;DHT22;70954;49.500;10.416;2023-07-02T04:51:54;18.90;60.80
81524;DHT22;70954;49.500;10.416;2023-07-02T04:54:21;19.00;60.80
81524;DHT22;70954;49.500;10.416;2023-07-02T04:56:47;19.00;60.70
81524;DHT22;70954;49.500;10.416;2023-07-02T04:59:12;19.00;60.70
81524;DHT22;70954;49.500;10.416;2023-07-02T05:01:38;19.10;60.70
81524;DHT22;70954;49.500;10.416;2023-07-02T05:04:05;19.10;60.40
81524;DHT22;70954;49.500;10.416;2023-07-02T05:06:31;19.10;60.30
81524;DHT22;70954;49.500;10.416;2023-07-02T05:08:56;19.20;60.00
81524;DHT22;70954;49.500;10.416;2023-07-02T05:11:22;19.20;59.70
81524;DHT22;70954;49.500;10.416;2023-07-02T05:13:47;19.30;59.30
81524;DHT22;70954;49.500;10.416;2023-07-02T05:16:12;19.30;58.60
81524;DHT22;70954;49.500;10.416;2023-07-02T05:18:38;19.30;58.30
81524;DHT22;70954;49.500;10.416;2023-07-02T05:21:03;19.40;58.30
81524;DHT22;70954;49.500;10.416;2023-07-02T05:23:29;19.40;57.90
81524;DHT22;70954;49.500;10.416;2023-07-02T05:25:54;19.40;57.90
81524;DHT22;70954;49.500;10.416;2023-07-02T05:28:20;19.50;57.50
81524;DHT22;70954;49.500;10.416;2023-07-02T05:30:45;19.50;57.30
81524;DHT22;70954;49.500;10.416;2023-07-02T05:33:11;19.50;56.90
81524;DHT22;70954;49.500;10.416;2023-07-02T05:35:36;19.50;56.80
81524;DHT22;70954;49.500;10.416;2023-07-02T05:38:02;19.50;56.60
81524;DHT22;70954;49.500;10.416;2023-07-02T05:40:27;19.50;56.50
81524;DHT22;70954;49.500;10.416;2023-07-02T05:42:52;19.50;56.30
81524;DHT22;70954;49.500;10.416;2023-07-02T05:45:19;19.50;56.20
81524;DHT22;70954;49.500;10.416;2023-07-02T05:47:44;19.50;56.30
81524;DHT22;70954;49.500;10.416;2023-07-02T05:50:10;19.50;56.00
81524;DHT22;70954;49.500;10.416;2023-07-02T05:52:35;19.50;55.30
81524;DHT22;70954;49.500;10.416;2023-07-02T05:55:01;19.50;55.20
81524;DHT22;70954;49.500;10.416;2023-07-02T05:57:26;19.50;55.00
81524;DHT22;70954;49.500;10.416;2023-07-02T05:59:52;19.50;54.70
81524;DHT22;70954;49.500;10.416;2023-07-02T06:02:17;19.50;54.70
81524;DHT22;70954;49.500;10.416;2023-07-02T06:04:42;19.50;53.80
81524;DHT22;70954;49.500;10.416;2023-07-02T06:07:08;19.40;52.90
81524;DHT22;70954;49.500;10.416;2023-07-02T06:09:33;19.40;52.60
81524;DHT22;70954;49.500;10.416;2023-07-02T06:11:59;19.40;52.10
81524;DHT22;70954;49.500;10.416;2023-07-02T06:14:24;19.40;52.30
81524;DHT22;70954;49.500;10.416;2023-07-02T06:16:50;19.30;52.40
81524;DHT22;70954;49.500;10.416;2023-07-02T06:19:15;19.30;52.60
81524;DHT22;70954;49.500;10.416;2023-07-02T06:21:41;19.30;52.70
81524;DHT22;70954;49.500;10.416;2023-07-02T06:24:08;19.30;52.60
81524;DHT22;70954;49.500;10.416;2023-07-02T06:26:34;19.30;52.90
81524;DHT22;70954;49.500;10.416;2023-07-02T06:29:00;19.30;53.00
81524;DHT22;70954;49.500;10.416;2023-07-02T06:31:25;19.30;53.30
81524;DHT22;70954;49.500;10.416;2023-07-02T06:33:51;19.40;53.00
81524;DHT22;70954;49.500;10.416;2023-07-02T06:36:16;19.40;52.70
81524;DHT22;70954;49.500;10.416;2023-07-02T06:38:41;19.40;52.50
81524;DHT22;70954;49.500;10.416;2023-07-02T06:41:07;19.40;52.40
81524;DHT22;70954;49.500;10.416;2023-07-02T06:43:32;19.40;52.20
81524;DHT22;70954;49.500;10.416;2023-07-02T06:45:58;19.50;52.50
81524;DHT22;70954;49.500;10.416;2023-07-02T06:48:23;19.50;52.70
81524;DHT22;70954;49.500;10.416;2023-07-02T06:50:49;19.50;52.50
81524;DHT22;70954;49.500;10.416;2023-07-02T06:53:14;19.60;52.20
81524;DHT22;70954;49.500;10.416;2023-07-02T06:55:40;19.60;51.80
81524;DHT22;70954;49.500;10.416;2023-07-02T06:58:05;19.70;51.60
81524;DHT22;70954;49.500;10.416;2023-07-02T07:00:32;19.70;51.20
81524;DHT22;70954;49.500;10.416;2023-07-02T07:02:58;19.70;51.20
81524;DHT22;70954;49.500;10.416;2023-07-02T07:05:23;19.80;51.20
81524;DHT22;70954;49.500;10.416;2023-07-02T07:07:49;19.90;51.20
81524;DHT22;70954;49.500;10.416;2023-07-02T07:10:14;19.90;51.20
81524;DHT22;70954;49.500;10.416;2023-07-02T07:12:39;19.90;50.80
81524;DHT22;70954;49.500;10.416;2023-07-02T07:15:05;20.00;50.80
81524;DHT22;70954;49.500;10.416;2023-07-02T07:17:31;20.00;50.80
81524;DHT22;70954;49.500;10.416;2023-07-02T07:19:56;20.00;50.40
81524;DHT22;70954;49.500;10.416;2023-07-02T07:22:22;20.00;49.90
81524;DHT22;70954;49.500;10.416;2023-07-02T07:24:47;20.10;50.00
81524;DHT22;70954;49.500;10.416;2023-07-02T07:27:13;20.10;50.00
81524;DHT22;70954;49.500;10.416;2023-07-02T07:29:38;20.20;49.70
81524;DHT22;70954;49.500;10.416;2023-07-02T07:32:04;20.30;50.00
81524;DHT22;70954;49.500;10.416;2023-07-02T07:34:29;20.30;50.20
81524;DHT22;70954;49.500;10.416;2023-07-02T07:36:55;20.40;49.70
81524;DHT22;70954;49.500;10.416;2023-07-02T07:39:20;20.50;49.10
81524;DHT22;70954;49.500;10.416;2023-07-02T07:41:48;20.50;48.80
81524;DHT22;70954;49.500;10.416;2023-07-02T07:44:14;20.50;48.70
81524;DHT22;70954;49.500;10.416;2023-07-02T07:46:39;20.60;48.60
81524;DHT22;70954;49.500;10.416;2023-07-02T07:49:05;20.60;47.70
81524;DHT22;70954;49.500;10.416;2023-07-02T07:51:30;20.70;48.00
81524;DHT22;70954;49.500;10.416;2023-07-02T07:53:56;20.80;47.80
81524;DHT22;70954;49.500;10.416;2023-07-02T07:56:21;20.80;47.60
81524;DHT22;70954;49.500;10.416;2023-07-02T07:58:47;20.90;47.90
81524;DHT22;70954;49.500;10.416;2023-07-02T08:01:12;21.00;47.90
81524;DHT22;70954;49.500;10.416;2023-07-02T08:03:38;21.00;47.70
81524;DHT22;70954;49.500;10.416;2023-07-02T08:06:03;21.10;47.70
81524;DHT22;70954;49.500;10.416;2023-07-02T08:08:29;21.10;47.10
81524;DHT22;70954;49.500;10.416;2023-07-02T08:10:54;21.30;47.00
81524;DHT22;70954;49.500;10.416;2023-07-02T08:13:20;21.30;46.50
81524;DHT22;70954;49.500;10.416;2023-07-02T08:15:45;21.40;46.70
81524;DHT22;70954;49.500;10.416;2023-07-02T08:18:10;21.40;46.20
81524;DHT22;70954;49.500;10.416;2023-07-02T08:20:36;21.50;46.20
81524;DHT22;70954;49.500;10.416;2023-07-02T08:23:01;21.50;46.10
81524;DHT22;70954;49.500;10.416;2023-07-02T08:25:27;21.50;45.80
81524;DHT22;70954;49.500;10.416;2023-07-02T08:27:52;21.60;46.30
81524;DHT22;70954;49.500;10.416;2023-07-02T08:30:18;21.70;46.50
81524;DHT22;70954;49.500;10.416;2023-07-02T08:32:45;21.70;45.30
81524;DHT22;70954;49.500;10.416;2023-07-02T08:35:11;21.70;44.90
81524;DHT22;70954;49.500;10.416;2023-07-02T08:37:36;21.80;45.00
81524;DHT22;70954;49.500;10.416;2023-07-02T08:40:02;21.90;45.40
81524;DHT22;70954;49.500;10.416;2023-07-02T08:42:28;21.90;45.10
81524;DHT22;70954;49.500;10.416;2023-07-02T08:44:53;22.00;44.80
81524;DHT22;70954;49.500;10.416;2023-07-02T08:47:19;22.00;44.60
81524;DHT22;70954;49.500;10.416;2023-07-02T08:49:45;22.10;43.90
81524;DHT22;70954;49.500;10.416;2023-07-02T08:52:13;22.20;44.00
81524;DHT22;70954;49.500;10.416;2023-07-02T08:54:38;22.20;44.20
81524;DHT22;70954;49.500;10.416;2023-07-02T08:57:04;22.30;43.30
81524;DHT22;70954;49.500;10.416;2023-07-02T08:59:30;22.40;43.00
81524;DHT22;70954;49.500;10.416;2023-07-02T09:01:55;22.50;43.10
81524;DHT22;70954;49.500;10.416;2023-07-02T09:04:25;22.50;43.40
81524;DHT22;70954;49.500;10.416;2023-07-02T09:07:04;22.60;43.30
81524;DHT22;70954;49.500;10.416;2023-07-02T09:09:30;22.70;42.30
81524;DHT22;70954;49.500;10.416;2023-07-02T09:11:56;22.70;42.60
81524;DHT22;70954;49.500;10.416;2023-07-02T09:14:29;22.80;42.20
81524;DHT22;70954;49.500;10.416;2023-07-02T09:17:08;22.90;41.90
81524;DHT22;70954;49.500;10.416;2023-07-02T09:19:34;23.00;41.70
81524;DHT22;70954;49.500;10.416;2023-07-02T09:22:00;23.10;42.10
81524;DHT22;70954;49.500;10.416;2023-07-02T09:24:27;23.10;42.30
81524;DHT22;70954;49.500;10.416;2023-07-02T09:26:58;23.20;41.50
81524;DHT22;70954;49.500;10.416;2023-07-02T09:29:31;23.20;41.60
81524;DHT22;70954;49.500;10.416;2023-07-02T09:31:59;23.30;40.90
81524;DHT22;70954;49.500;10.416;2023-07-02T09:34:32;23.30;41.10
81524;DHT22;70954;49.500;10.416;2023-07-02T09:36:59;23.40;41.30
81524;DHT22;70954;49.500;10.416;2023-07-02T09:39:32;23.40;40.10
81524;DHT22;70954;49.500;10.416;2023-07-02T09:41:59;23.40;40.00
81524;DHT22;70954;49.500;10.416;2023-07-02T09:44:29;23.40;39.90
81524;DHT22;70954;49.500;10.416;2023-07-02T09:47:16;23.40;39.50
81524;DHT22;70954;49.500;10.416;2023-07-02T09:49:48;23.40;38.40
81524;DHT22;70954;49.500;10.416;2023-07-02T09:52:16;23.30;38.30
81524;DHT22;70954;49.500;10.416;2023-07-02T09:54:42;23.40;40.40
81524;DHT22;70954;49.500;10.416;2023-07-02T09:57:07;23.50;40.10
81524;DHT22;70954;49.500;10.416;2023-07-02T09:59:33;23.60;39.70
81524;DHT22;70954;49.500;10.416;2023-07-02T10:01:59;23.60;39.30
81524;DHT22;70954;49.500;10.416;2023-07-02T10:04:25;23.60;39.10
81524;DHT22;70954;49.500;10.416;2023-07-02T10:06:56;23.70;38.30
81524;DHT22;70954;49.500;10.416;2023-07-02T10:09:36;23.80;38.70
81524;DHT22;70954;49.500;10.416;2023-07-02T10:12:14;23.80;38.60
81524;DHT22;70954;49.500;10.416;2023-07-02T10:14:43;23.80;38.20
81524;DHT22;70954;49.500;10.416;2023-07-02T10:17:09;23.80;38.60
81524;DHT22;70954;49.500;10.416;2023-07-02T10:19:34;23.80;37.50
81524;DHT22;70954;49.500;10.416;2023-07-02T10:22:01;23.90;37.60
81524;DHT22;70954;49.500;10.416;2023-07-02T10:24:27;23.90;37.90
81524;DHT22;70954;49.500;10.416;2023-07-02T10:27:00;24.00;38.20
81524;DHT22;70954;49.500;10.416;2023-07-02T10:29:27;24.00;36.60
81524;DHT22;70954;49.500;10.416;2023-07-02T10:31:57;24.10;36.50
81524;DHT22;70954;49.500;10.416;2023-07-02T10:34:33;24.10;35.90
81524;DHT22;70954;49.500;10.416;2023-07-02T10:37:03;24.10;35.30
81524;DHT22;70954;49.500;10.416;2023-07-02T10:39:38;24.00;35.90
81524;DHT22;70954;49.500;10.416;2023-07-02T10:42:07;24.00;35.80
81524;DHT22;70954;49.500;10.416;2023-07-02T10:44:33;23.90;34.20
81524;DHT22;70954;49.500;10.416;2023-07-02T10:46:59;24.00;35.40
81524;DHT22;70954;49.500;10.416;2023-07-02T10:49:30;24.00;35.30
81524;DHT22;70954;49.500;10.416;2023-07-02T10:52:03;24.00;34.80
81524;DHT22;70954;49.500;10.416;2023-07-02T10:54:41;24.00;35.20
81524;DHT22;70954;49.500;10.416;2023-07-02T10:57:08;24.00;34.20
81524;DHT22;70954;49.500;10.416;2023-07-02T10:59:33;24.00;35.10
81524;DHT22;70954;49.500;10.416;2023-07-02T11:01:59;24.00;35.40
81524;DHT22;70954;49.500;10.416;2023-07-02T11:04:25;24.10;35.20
81524;DHT22;70954;49.500;10.416;2023-07-02T11:06:51;24.20;35.70
81524;DHT22;70954;49.500;10.416;2023-07-02T11:09:17;24.20;35.80
81524;DHT22;70954;49.500;10.416;2023-07-02T11:12:01;24.40;35.50
81524;DHT22;70954;49.500;10.416;2023-07-02T11:14:31;24.40;33.30
81524;DHT22;70954;49.500;10.416;2023-07-02T11:16:58;24.50;34.50
81524;DHT22;70954;49.500;10.416;2023-07-02T11:19:24;24.60;34.90
81524;DHT22;70954;49.500;10.416;2023-07-02T11:21:52;24.60;34.30
81524;DHT22;70954;49.500;10.416;2023-07-02T11:24:26;24.60;35.00
81524;DHT22;70954;49.500;10.416;2023-07-02T11:26:52;24.70;34.70
81524;DHT22;70954;49.500;10.416;2023-07-02T11:29:18;24.70;34.70
81524;DHT22;70954;49.500;10.416;2023-07-02T11:31:44;24.80;34.80
81524;DHT22;70954;49.500;10.416;2023-07-02T11:34:17;24.80;33.90
81524;DHT22;70954;49.500;10.416;2023-07-02T11:36:43;24.90;33.60
81524;DHT22;70954;49.500;10.416;2023-07-02T11:39:09;25.00;34.00
81524;DHT22;70954;49.500;10.416;2023-07-02T11:41:39;25.00;33.90
81524;DHT22;70954;49.500;10.416;2023-07-02T11:44:06;25.00;33.80
81524;DHT22;70954;49.500;10.416;2023-07-02T11:46:31;25.00;33.70
81524;DHT22;70954;49.500;10.416;2023-07-02T11:48:57;25.00;33.80
81524;DHT22;70954;49.500;10.416;2023-07-02T11:51:22;25.00;33.70
81524;DHT22;70954;49.500;10.416;2023-07-02T11:53:48;25.00;33.50
81524;DHT22;70954;49.500;10.416;2023-07-02T11:56:13;25.10;33.50
81524;DHT22;70954;49.500;10.416;2023-07-02T11:58:40;25.20;33.90
81524;DHT22;70954;49.500;10.416;2023-07-02T12:01:06;25.20;33.80
81524;DHT22;70954;49.500;10.416;2023-07-02T12:03:31;25.30;33.30
81524;DHT22;70954;49.500;10.416;2023-07-02T12:05:57;25.30;33.00
81524;DHT22;70954;49.500;10.416;2023-07-02T12:08:22;25.40;33.20
81524;DHT22;70954;49.500;10.416;2023-07-02T12:10:48;25.40;33.70
81524;DHT22;70954;49.500;10.416;2023-07-02T12:13:13;25.50;33.40
81524;DHT22;70954;49.500;10.416;2023-07-02T12:15:39;25.60;32.90
81524;DHT22;70954;49.500;10.416;2023-07-02T12:18:04;25.60;33.10
81524;DHT22;70954;49.500;10.416;2023-07-02T12:20:30;25.60;32.90
81524;DHT22;70954;49.500;10.416;2023-07-02T12:22:56;25.80;32.90
81524;DHT22;70954;49.500;10.416;2023-07-02T12:25:21;25.80;33.20
81524;DHT22;70954;49.500;10.416;2023-07-02T12:27:47;25.80;33.20
81524;DHT22;70954;49.500;10.416;2023-07-02T12:30:12;25.80;32.40
81524;DHT22;70954;49.500;10.416;2023-07-02T12:32:38;25.90;32.10
81524;DHT22;70954;49.500;10.416;2023-07-02T12:35:04;25.90;31.90
81524;DHT22;70954;49.500;10.416;2023-07-02T12:37:32;25.90;31.50
81524;DHT22;70954;49.500;10.416;2023-07-02T12:39:57;25.90;31.30
81524;DHT22;70954;49.500;10.416;2023-07-02T12:42:23;25.90;31.60
81524;DHT22;70954;49.500;10.416;2023-07-02T12:44:48;25.80;30.70
81524;DHT22;70954;49.500;10.416;2023-07-02T12:47:14;25.80;31.20
81524;DHT22;70954;49.500;10.416;2023-07-02T12:49:39;25.80;31.20
81524;DHT22;70954;49.500;10.416;2023-07-02T12:52:05;25.80;31.50
81524;DHT22;70954;49.500;10.416;2023-07-02T12:54:30;25.80;31.20
81524;DHT22;70954;49.500;10.416;2023-07-02T12:56:56;25.80;31.10
81524;DHT22;70954;49.500;10.416;2023-07-02T12:59:21;25.70;31.10
81524;DHT22;70954;49.500;10.416;2023-07-02T13:01:47;25.70;31.60
81524;DHT22;70954;49.500;10.416;2023-07-02T13:04:12;25.60;31.80
81524;DHT22;70954;49.500;10.416;2023-07-02T13:06:37;25.60;32.00
81524;DHT22;70954;49.500;10.416;2023-07-02T13:09:03;25.60;31.90
81524;DHT22;70954;49.500;10.416;2023-07-02T13:11:28;25.60;31.70
81524;DHT22;70954;49.500;10.416;2023-07-02T13:13:54;25.60;31.70
81524;DHT22;70954;49.500;10.416;2023-07-02T13:16:19;25.60;31.80
81524;DHT22;70954;49.500;10.416;2023-07-02T13:18:45;25.60;31.80
81524;DHT22;70954;49.500;10.416;2023-07-02T13:21:10;25.60;32.10
81524;DHT22;70954;49.500;10.416;2023-07-02T13:23:36;25.60;31.40
81524;DHT22;70954;49.500;10.416;2023-07-02T13:26:01;25.60;31.60
81524;DHT22;70954;49.500;10.416;2023-07-02T13:28:27;25.60;31.50
81524;DHT22;70954;49.500;10.416;2023-07-02T13:30:52;25.50;31.60
81524;DHT22;70954;49.500;10.416;2023-07-02T13:33:17;25.50;31.80
81524;DHT22;70954;49.500;10.416;2023-07-02T13:35:44;25.40;31.10
81524;DHT22;70954;49.500;10.416;2023-07-02T13:38:10;25.40;31.40
81524;DHT22;70954;49.500;10.416;2023-07-02T13:40:35;25.30;31.60
81524;DHT22;70954;49.500;10.416;2023-07-02T13:43:01;25.30;31.70
81524;DHT22;70954;49.500;10.416;2023-07-02T13:45:26;25.20;31.80
81524;DHT22;70954;49.500;10.416;2023-07-02T13:47:52;25.20;31.80
81524;DHT22;70954;49.500;10.416;2023-07-02T13:50:17;25.10;32.00
81524;DHT22;70954;49.500;10.416;2023-07-02T13:52:43;25.10;32.30
81524;DHT22;70954;49.500;10.416;2023-07-02T13:55:08;25.10;32.70
81524;DHT22;70954;49.500;10.416;2023-07-02T13:57:34;25.10;32.20
81524;DHT22;70954;49.500;10.416;2023-07-02T13:59:59;25.10;32.20
81524;DHT22;70954;49.500;10.416;2023-07-02T14:02:25;25.10;31.90
81524;DHT22;70954;49.500;10.416;2023-07-02T14:04:50;25.20;32.10
81524;DHT22;70954;49.500;10.416;2023-07-02T14:07:16;25.20;32.10
81524;DHT22;70954;49.500;10.416;2023-07-02T14:09:41;25.20;32.10
81524;DHT22;70954;49.500;10.416;2023-07-02T14:12:07;25.20;32.20
81524;DHT22;70954;49.500;10.416;2023-07-02T14:14:33;25.20;32.30
81524;DHT22;70954;49.500;10.416;2023-07-02T14:16:58;25.20;32.30
81524;DHT22;70954;49.500;10.416;2023-07-02T14:19:24;25.20;32.10
81524;DHT22;70954;49.500;10.416;2023-07-02T14:21:49;25.30;32.40
81524;DHT22;70954;49.500;10.416;2023-07-02T14:24:15;25.30;32.60
81524;DHT22;70954;49.500;10.416;2023-07-02T14:26:40;25.40;32.10
81524;DHT22;70954;49.500;10.416;2023-07-02T14:29:06;25.40;31.90
81524;DHT22;70954;49.500;10.416;2023-07-02T14:31:31;25.50;31.90
81524;DHT22;70954;49.500;10.416;2023-07-02T14:33:57;25.50;31.70
81524;DHT22;70954;49.500;10.416;2023-07-02T14:36:22;25.60;31.70
81524;DHT22;70954;49.500;10.416;2023-07-02T14:38:48;25.60;31.80
81524;DHT22;70954;49.500;10.416;2023-07-02T14:41:13;25.60;31.70
81524;DHT22;70954;49.500;10.416;2023-07-02T14:43:39;25.70;31.50
81524;DHT22;70954;49.500;10.416;2023-07-02T14:46:04;25.80;31.50
81524;DHT22;70954;49.500;10.416;2023-07-02T14:48:30;25.90;31.00
81524;DHT22;70954;49.500;10.416;2023-07-02T14:50:58;26.00;31.00
81524;DHT22;70954;49.500;10.416;2023-07-02T14:53:25;26.00;31.00
81524;DHT22;70954;49.500;10.416;2023-07-02T14:55:57;26.00;30.50
81524;DHT22;70954;49.500;10.416;2023-07-02T14:58:24;26.10;30.70
81524;DHT22;70954;49.500;10.416;2023-07-02T15:00:52;26.10;30.70
81524;DHT22;70954;49.500;10.416;2023-07-02T15:03:19;26.10;30.80
81524;DHT22;70954;49.500;10.416;2023-07-02T15:05:46;26.20;30.80
81524;DHT22;70954;49.500;10.416;2023-07-02T15:08:12;26.10;30.10